Flight Track Log - Related Links

Times and Time Zones

All times are in EDT time to prevent confusion due to time zone crossing. See the N214TP flight status page for this flight to view local times or setup timezone preferences in your user account.

Time Position Orientation Groundspeed Altitude Reporting Facility
EDT Latitude Longitude Course Direction KTS MPH feet Rate Location/Type
Thu 04:14:57 PM 35.2525 -120.6653 333° Northwest 156 180 1,000  Level Los Angeles Center
Thu 04:16:19 PM 35.3069 -120.6994 333° Northwest 185 213 3,200 1,886 Climbing Los Angeles Center
Thu 04:17:17 PM 35.3553 -120.7328 331° Northwest 180 207 5,400 1,839 Climbing Los Angeles Center
Thu 04:18:23 PM 35.3931 -120.7533 336° Northwest 174 200 7,000 1,688 Climbing Los Angeles Center
Thu 04:19:25 PM 35.4531 -120.7475 North 179 206 9,000 1,597 Climbing Los Angeles Center
Thu 04:20:27 PM 35.5069 -120.7419 North 185 213 10,300 726 Climbing Los Angeles Center
Thu 04:21:29 PM 35.5733 -120.7547 351° North 224 258 10,500 98 Climbing Los Angeles Center
Thu 04:22:29 PM 35.6425 -120.7856 340° North 249 287 10,500  Level Oakland Center
Thu 04:23:30 PM 35.7078 -120.8289 332° Northwest 260 299 10,500 -49 Level Oakland Center
Thu 04:24:32 PM 35.7694 -120.8747 329° Northwest 261 300 10,400 244 Descending Oakland Center
Thu 04:25:33 PM 35.8314 -120.9194 330° Northwest 258 297 11,000 195 Climbing Oakland Center
Thu 04:26:35 PM 35.8944 -120.9647 330° Northwest 261 300 10,800 -244 Descending Oakland Center
Thu 04:27:36 PM 35.9611 -121.0111 331° Northwest 270 311 10,500 -98 Descending Oakland Center
Thu 04:28:38 PM 36.0236 -121.0567 329° Northwest 266 306 10,600 49 Climbing Oakland Center
Thu 04:29:39 PM 36.0969 -121.1106 329° Northwest 258 297 10,600  Level Oakland Center
Thu 04:30:40 PM 36.1592 -121.1547 330° Northwest 257 296 10,600  Level Oakland Center
Thu 04:31:42 PM 36.2189 -121.1994 329° Northwest 254 292 10,600  Level Oakland Center
Thu 04:32:43 PM 36.2806 -121.2417 331° Northwest 254 292 10,600  Level Oakland Center
Thu 04:33:45 PM 36.3400 -121.2878 328° Northwest 251 289 10,600  Level Oakland Center
Thu 04:34:46 PM 36.4008 -121.3306 330° Northwest 253 291 10,600  Level Oakland Center
Thu 04:35:47 PM 36.4617 -121.3731 331° Northwest 252 290 10,600  Level Oakland Center
Thu 04:36:49 PM 36.5211 -121.4200 328° Northwest 253 291 10,600 -49 Level Oakland Center
Thu 04:37:50 PM 36.5942 -121.4725 330° Northwest 253 291 10,500 -49 Descending Oakland Center
Thu 04:38:52 PM 36.6544 -121.5158 330° Northwest 253 291 10,500  Level Oakland Center
Thu 04:39:53 PM 36.7153 -121.5592 330° Northwest 253 291 10,500  Level Oakland Center
Thu 04:40:55 PM 36.7758 -121.6033 330° Northwest 253 291 10,500  Level Oakland Center
Thu 04:41:36 PM 36.8167 -121.6333 330° Northwest 253 291 10,500 -178 Level Northern Cal TRACON
Thu 04:42:36 PM 36.8833 -121.6833 329° Northwest 253 291 10,200 -714 Descending Northern Cal TRACON
Thu 04:43:42 PM 36.9500 -121.7333 329° Northwest 256 295 9,000 -1,048 Descending Northern Cal TRACON
Thu 04:44:42 PM 37.0167 -121.7833 329° Northwest 251 289 8,000 -947 Descending Northern Cal TRACON
Thu 04:45:36 PM 37.0667 -121.8167 332° Northwest 250 288 7,200 -1,000 Descending Northern Cal TRACON
Thu 04:46:42 PM 37.1333 -121.8667 329° Northwest 249 287 6,000 -1,048 Descending Northern Cal TRACON
Thu 04:47:42 PM 37.1833 -121.9167 321° Northwest 242 278 5,000 -947 Descending Northern Cal TRACON
Thu 04:48:36 PM 37.2333 -121.9500 332° Northwest 222 255 4,200 -857 Descending Northern Cal TRACON
Thu 04:49:06 PM 37.2519 -121.9567 344° North 229 264 3,800 -725 Descending Oakland Center
Thu 04:50:07 PM 37.2947 -121.9908 328° Northwest 205 236 3,100 -780 Descending Oakland Center
Thu 04:51:09 PM 37.3414 -122.0208 333° Northwest 175 201 2,200 -780 Descending Oakland Center
Thu 04:52:10 PM 37.3794 -122.0431 335° Northwest 160 184 1,500 -537 Descending Oakland Center
Thu 04:53:12 PM 37.4136 -122.0661 332° Northwest 151 174 1,100 -488 Descending Oakland Center
Thu 04:54:13 PM 37.4375 -122.0919 319° Northwest 131 151 500 -590 Descending Oakland Center
Thu 04:57:00 PM 37.4500 -122.1000 329° Northwest  Level FlightAware Approximate

Login

Don't have an account? Register now (free) for customized features, flight alerts, and more!